Flight Track Log - Related Links

Times and Time Zones

All times are in EDT time to prevent confusion due to time zone crossing. See the CCA4297 flight status page for this flight to view local times or setup timezone preferences in your user account.

Time Position Orientation Groundspeed Altitude Reporting Facility
EDT Latitude Longitude Course Direction KTS MPH feet Rate Location/Type
Fri 07:21:00 AM 29.9344 106.4463 322° Northwest  Level Estimated
Fri 07:22:00 AM 29.9882 106.3975 322° Northwest  Level Estimated
Fri 07:23:00 AM 30.0419 106.3486 322° Northwest  Level Estimated
Fri 07:24:00 AM 30.0956 106.2997 322° Northwest  Level Estimated
Fri 07:25:00 AM 30.1492 106.2508 322° Northwest  Level Estimated
Fri 07:26:00 AM 30.2029 106.2017 322° Northwest  Level Estimated
Fri 07:27:00 AM 30.2565 106.1527 322° Northwest  Level Estimated
Fri 07:28:00 AM 30.3101 106.1035 322° Northwest  Level Estimated
Fri 07:29:00 AM 30.3637 106.0544 322° Northwest  Level Estimated
Fri 07:30:00 AM 30.4173 106.0051 322° Northwest  Level Estimated
Fri 07:31:00 AM 30.4708 105.9558 322° Northwest  Level Estimated
Fri 07:32:00 AM 30.5244 105.9065 322° Northwest  Level Estimated
Fri 07:33:00 AM 30.5779 105.8571 322° Northwest  Level Estimated
Fri 07:34:00 AM 30.6314 105.8076 322° Northwest  Level Estimated
Fri 07:35:00 AM 30.6849 105.7581 321° Northwest  Level Estimated
Fri 07:36:00 AM 30.7383 105.7086 321° Northwest  Level Estimated
Fri 07:37:00 AM 30.7918 105.6590 321° Northwest  Level Estimated
Fri 07:38:00 AM 30.8452 105.6093 321° Northwest  Level Estimated
Fri 07:39:00 AM 30.8986 105.5595 321° Northwest  Level Estimated
Fri 07:40:00 AM 30.9520 105.5098 321° Northwest  Level Estimated
Fri 07:41:00 AM 31.0054 105.4599 321° Northwest  Level Estimated
Fri 07:42:00 AM 31.0587 105.4100 321° Northwest  Level Estimated
Fri 07:43:00 AM 31.1121 105.3601 321° Northwest  Level Estimated
Fri 07:44:00 AM 31.1654 105.3101 321° Northwest  Level Estimated
Fri 07:45:00 AM 31.2187 105.2600 321° Northwest  Level Estimated
Fri 07:46:00 AM 31.2719 105.2099 321° Northwest  Level Estimated
Fri 07:47:00 AM 31.3252 105.1597 321° Northwest  Level Estimated
Fri 07:48:00 AM 31.3784 105.1095 321° Northwest  Level Estimated
Fri 07:49:00 AM 31.4316 105.0592 321° Northwest  Level Estimated
Fri 07:50:00 AM 31.4848 105.0089 321° Northwest  Level Estimated
Fri 07:51:00 AM 31.5380 104.9585 321° Northwest  Level Estimated
Fri 07:52:00 AM 31.5912 104.9080 321° Northwest  Level Estimated
Fri 07:53:00 AM 31.6443 104.8575 321° Northwest  Level Estimated
Fri 07:54:00 AM 31.6974 104.8069 321° Northwest  Level Estimated
Fri 07:55:00 AM 31.7505 104.7563 321° Northwest  Level Estimated
Fri 07:55:47 AM 32.4060 104.6450 321° Northwest 479 551 23,600  Level FlightAware ADS-B
Fri 07:56:00 AM 31.8036 104.7056 321° Northwest  Level Estimated
Fri 07:56:31 AM 32.4070 104.5420 271° West 479 551 23,600  Level FlightAware ADS-B
Fri 07:57:10 AM 32.4060 104.4300 269° West 478 550 23,600  Level FlightAware ADS-B
Fri 07:57:39 AM 32.4190 104.3560 282° West 477 549 23,600  Level FlightAware ADS-B
Fri 07:57:53 AM 32.4350 104.3220 299° West 475 547 23,600 -625 Level FlightAware ADS-B
Fri 07:58:27 AM 32.4860 104.2640 316° Northwest 447 514 23,100 -963 Descending FlightAware ADS-B
Fri 07:59:14 AM 32.5530 104.1970 320° Northwest 380 437 22,300 -795 Descending FlightAware ADS-B
Fri 07:59:50 AM 32.5750 104.1400 295° West 374 430 22,000 -250 Descending FlightAware ADS-B
Fri 08:00:26 AM 32.5960 104.0820 293° West 374 430 22,000  Level FlightAware ADS-B
Fri 08:01:02 AM 32.6180 104.0250 295° West 374 430 22,000  Level FlightAware ADS-B
Fri 08:01:38 AM 32.6390 103.9680 294° West 374 430 22,000  Level FlightAware ADS-B
Fri 08:02:14 AM 32.6610 103.9100 294° West 374 430 22,000  Level FlightAware ADS-B
Fri 08:02:50 AM 32.6820 103.8530 294° West 374 430 22,000  Level FlightAware ADS-B
Fri 08:05:00 AM 32.7967 103.7416 321° Northwest  Level Estimated
Fri 08:06:00 AM 32.8497 103.6901 321° Northwest  Level Estimated
Fri 08:07:00 AM 32.8570 103.6830 321° Northwest  Level Estimated
Fri 08:08:00 AM 32.8570 103.6830 North  Level Estimated
Fri 08:09:00 AM 32.8570 103.6830 North  Level Estimated
Fri 08:10:00 AM 32.8570 103.6830 North  Level Estimated
Fri 08:11:00 AM 32.8570 103.6830 North  Level Estimated
Fri 08:12:00 AM 32.8570 103.6830 North  Level Estimated
Fri 08:13:00 AM 32.8570 103.6830 North  Level Estimated
Fri 08:14:00 AM 32.8570 103.6830 North  Level Estimated
Fri 08:15:00 AM 32.8570 103.6830 North  Level Estimated
Fri 08:16:00 AM 32.8570 103.6830 North  Level Estimated
Fri 08:17:00 AM 32.8570 103.6830 North  Level Estimated
Fri 08:18:00 AM 32.8570 103.6830 North  Level Estimated
Fri 08:19:00 AM 32.8570 103.6830 North  Level Estimated
Fri 08:20:00 AM 32.8570 103.6830 North  Level Estimated

Login

Don't have an account? Register now (free) for customized features, flight alerts, and more!